sensor_id;sensor_type;location;lat;lon;timestamp;temperature;humidity
60727;DHT22;46577;49.004;12.120;2022-08-07T00:01:21;17.20;75.30
60727;DHT22;46577;49.004;12.120;2022-08-07T00:03:47;17.20;75.60
60727;DHT22;46577;49.004;12.120;2022-08-07T00:06:13;17.10;76.40
60727;DHT22;46577;49.004;12.120;2022-08-07T00:08:38;19.50;79.20
60727;DHT22;46577;49.004;12.120;2022-08-07T00:11:04;17.10;77.10
60727;DHT22;46577;49.004;12.120;2022-08-07T00:13:31;17.00;77.20
60727;DHT22;46577;49.004;12.120;2022-08-07T00:15:57;17.00;77.60
60727;DHT22;46577;49.004;12.120;2022-08-07T00:18:26;17.00;78.00
60727;DHT22;46577;49.004;12.120;2022-08-07T00:20:58;16.90;77.90
60727;DHT22;46577;49.004;12.120;2022-08-07T00:23:24;16.90;78.00
60727;DHT22;46577;49.004;12.120;2022-08-07T00:25:50;16.80;78.60
60727;DHT22;46577;49.004;12.120;2022-08-07T00:28:16;16.80;78.60
60727;DHT22;46577;49.004;12.120;2022-08-07T00:30:41;16.80;79.10
60727;DHT22;46577;49.004;12.120;2022-08-07T00:33:07;16.70;79.40
60727;DHT22;46577;49.004;12.120;2022-08-07T00:35:34;16.70;79.60
60727;DHT22;46577;49.004;12.120;2022-08-07T00:38:00;16.70;80.00
60727;DHT22;46577;49.004;12.120;2022-08-07T00:40:26;16.60;80.50
60727;DHT22;46577;49.004;12.120;2022-08-07T00:42:52;16.70;81.70
60727;DHT22;46577;49.004;12.120;2022-08-07T00:45:18;16.60;81.40
60727;DHT22;46577;49.004;12.120;2022-08-07T00:47:46;16.60;81.70
60727;DHT22;46577;49.004;12.120;2022-08-07T00:50:11;16.60;82.30
60727;DHT22;46577;49.004;12.120;2022-08-07T00:52:37;16.60;81.70
60727;DHT22;46577;49.004;12.120;2022-08-07T00:55:03;16.70;84.70
60727;DHT22;46577;49.004;12.120;2022-08-07T00:57:28;16.80;81.50
60727;DHT22;46577;49.004;12.120;2022-08-07T00:59:54;16.70;80.90
60727;DHT22;46577;49.004;12.120;2022-08-07T01:02:22;16.60;81.10
60727;DHT22;46577;49.004;12.120;2022-08-07T01:04:48;16.50;81.50
60727;DHT22;46577;49.004;12.120;2022-08-07T01:07:14;16.40;81.30
60727;DHT22;46577;49.004;12.120;2022-08-07T01:09:40;14.80;79.90
60727;DHT22;46577;49.004;12.120;2022-08-07T01:12:06;16.40;81.90
60727;DHT22;46577;49.004;12.120;2022-08-07T01:14:33;16.30;81.80
60727;DHT22;46577;49.004;12.120;2022-08-07T01:16:58;16.30;82.10
60727;DHT22;46577;49.004;12.120;2022-08-07T01:19:26;16.20;82.70
60727;DHT22;46577;49.004;12.120;2022-08-07T01:21:54;16.10;82.90
60727;DHT22;46577;49.004;12.120;2022-08-07T01:24:21;16.10;82.90
60727;DHT22;46577;49.004;12.120;2022-08-07T01:26:51;16.10;83.20
60727;DHT22;46577;49.004;12.120;2022-08-07T01:29:18;16.10;83.30
60727;DHT22;46577;49.004;12.120;2022-08-07T01:31:44;16.00;83.60
60727;DHT22;46577;49.004;12.120;2022-08-07T01:34:11;16.00;84.30
60727;DHT22;46577;49.004;12.120;2022-08-07T01:36:36;15.90;84.90
60727;DHT22;46577;49.004;12.120;2022-08-07T01:39:02;15.90;85.10
60727;DHT22;46577;49.004;12.120;2022-08-07T01:41:28;15.90;85.30
60727;DHT22;46577;49.004;12.120;2022-08-07T01:43:54;15.80;86.00
60727;DHT22;46577;49.004;12.120;2022-08-07T01:46:20;15.80;86.10
60727;DHT22;46577;49.004;12.120;2022-08-07T01:48:47;15.80;86.40
60727;DHT22;46577;49.004;12.120;2022-08-07T01:51:17;15.70;86.70
60727;DHT22;46577;49.004;12.120;2022-08-07T01:53:46;15.70;87.10
60727;DHT22;46577;49.004;12.120;2022-08-07T01:56:24;15.60;87.00
60727;DHT22;46577;49.004;12.120;2022-08-07T01:59:05;15.60;88.30
60727;DHT22;46577;49.004;12.120;2022-08-07T02:01:35;15.60;87.70
60727;DHT22;46577;49.004;12.120;2022-08-07T02:04:14;15.50;87.70
60727;DHT22;46577;49.004;12.120;2022-08-07T02:06:42;15.50;87.90
60727;DHT22;46577;49.004;12.120;2022-08-07T02:09:11;15.40;88.10
60727;DHT22;46577;49.004;12.120;2022-08-07T02:11:42;15.40;87.90
60727;DHT22;46577;49.004;12.120;2022-08-07T02:14:09;15.40;88.00
60727;DHT22;46577;49.004;12.120;2022-08-07T02:16:37;15.40;88.00
60727;DHT22;46577;49.004;12.120;2022-08-07T02:19:09;15.40;88.10
60727;DHT22;46577;49.004;12.120;2022-08-07T02:21:40;15.40;88.10
60727;DHT22;46577;49.004;12.120;2022-08-07T02:24:07;15.30;88.30
60727;DHT22;46577;49.004;12.120;2022-08-07T02:26:35;15.30;88.50
60727;DHT22;46577;49.004;12.120;2022-08-07T02:29:05;15.20;88.60
60727;DHT22;46577;49.004;12.120;2022-08-07T02:31:31;15.20;88.70
60727;DHT22;46577;49.004;12.120;2022-08-07T02:33:59;15.20;88.70
60727;DHT22;46577;49.004;12.120;2022-08-07T02:36:26;15.20;88.90
60727;DHT22;46577;49.004;12.120;2022-08-07T02:38:55;15.20;88.90
60727;DHT22;46577;49.004;12.120;2022-08-07T02:41:22;15.20;88.60
60727;DHT22;46577;49.004;12.120;2022-08-07T02:43:49;15.10;88.10
60727;DHT22;46577;49.004;12.120;2022-08-07T02:46:17;15.10;88.10
60727;DHT22;46577;49.004;12.120;2022-08-07T02:48:44;15.10;88.30
60727;DHT22;46577;49.004;12.120;2022-08-07T02:51:12;15.10;88.20
60727;DHT22;46577;49.004;12.120;2022-08-07T02:53:41;15.00;88.10
60727;DHT22;46577;49.004;12.120;2022-08-07T02:56:12;15.00;88.00
60727;DHT22;46577;49.004;12.120;2022-08-07T02:58:39;14.90;87.90
60727;DHT22;46577;49.004;12.120;2022-08-07T03:01:05;14.90;88.10
60727;DHT22;46577;49.004;12.120;2022-08-07T03:03:33;14.90;88.30
60727;DHT22;46577;49.004;12.120;2022-08-07T03:06:00;14.80;89.00
60727;DHT22;46577;49.004;12.120;2022-08-07T03:08:28;14.80;89.30
60727;DHT22;46577;49.004;12.120;2022-08-07T03:10:55;14.70;89.50
60727;DHT22;46577;49.004;12.120;2022-08-07T03:13:21;14.70;89.80
60727;DHT22;46577;49.004;12.120;2022-08-07T03:15:47;14.70;89.60
60727;DHT22;46577;49.004;12.120;2022-08-07T03:18:14;14.70;89.30
60727;DHT22;46577;49.004;12.120;2022-08-07T03:20:41;14.70;89.50
60727;DHT22;46577;49.004;12.120;2022-08-07T03:23:07;14.70;89.30
60727;DHT22;46577;49.004;12.120;2022-08-07T03:25:35;14.60;89.30
60727;DHT22;46577;49.004;12.120;2022-08-07T03:28:03;14.60;89.10
60727;DHT22;46577;49.004;12.120;2022-08-07T03:30:30;14.60;88.80
60727;DHT22;46577;49.004;12.120;2022-08-07T03:32:58;14.60;88.80
60727;DHT22;46577;49.004;12.120;2022-08-07T03:35:25;14.60;88.30
60727;DHT22;46577;49.004;12.120;2022-08-07T03:37:55;14.60;88.00
60727;DHT22;46577;49.004;12.120;2022-08-07T03:40:23;14.50;88.20
60727;DHT22;46577;49.004;12.120;2022-08-07T03:42:50;14.50;87.90
60727;DHT22;46577;49.004;12.120;2022-08-07T03:45:17;14.50;87.70
60727;DHT22;46577;49.004;12.120;2022-08-07T03:47:43;14.50;87.90
60727;DHT22;46577;49.004;12.120;2022-08-07T03:50:09;14.50;88.00
60727;DHT22;46577;49.004;12.120;2022-08-07T03:52:35;14.50;88.80
60727;DHT22;46577;49.004;12.120;2022-08-07T03:55:02;14.50;88.40
60727;DHT22;46577;49.004;12.120;2022-08-07T03:57:29;14.50;88.30
60727;DHT22;46577;49.004;12.120;2022-08-07T03:59:56;14.50;87.40
60727;DHT22;46577;49.004;12.120;2022-08-07T04:02:22;14.50;87.40
60727;DHT22;46577;49.004;12.120;2022-08-07T04:04:49;14.50;87.30
60727;DHT22;46577;49.004;12.120;2022-08-07T04:07:15;14.50;87.20
60727;DHT22;46577;49.004;12.120;2022-08-07T04:09:43;14.60;86.90
60727;DHT22;46577;49.004;12.120;2022-08-07T04:12:09;14.60;86.90
60727;DHT22;46577;49.004;12.120;2022-08-07T04:14:35;14.60;86.60
60727;DHT22;46577;49.004;12.120;2022-08-07T04:17:01;14.60;86.80
60727;DHT22;46577;49.004;12.120;2022-08-07T04:19:27;14.60;87.30
60727;DHT22;46577;49.004;12.120;2022-08-07T04:21:53;14.70;86.80
60727;DHT22;46577;49.004;12.120;2022-08-07T04:24:20;14.70;86.60
60727;DHT22;46577;49.004;12.120;2022-08-07T04:26:46;14.70;86.30
60727;DHT22;46577;49.004;12.120;2022-08-07T04:29:12;14.80;86.10
60727;DHT22;46577;49.004;12.120;2022-08-07T04:31:38;14.90;85.50
60727;DHT22;46577;49.004;12.120;2022-08-07T04:34:05;14.90;85.30
60727;DHT22;46577;49.004;12.120;2022-08-07T04:36:31;14.90;86.00
60727;DHT22;46577;49.004;12.120;2022-08-07T04:38:57;15.00;85.30
60727;DHT22;46577;49.004;12.120;2022-08-07T04:41:23;15.10;85.50
60727;DHT22;46577;49.004;12.120;2022-08-07T04:43:49;15.20;84.60
60727;DHT22;46577;49.004;12.120;2022-08-07T04:46:26;15.40;83.70
60727;DHT22;46577;49.004;12.120;2022-08-07T04:59:57;16.90;77.70
60727;DHT22;46577;49.004;12.120;2022-08-07T05:05:19;17.70;74.80
60727;DHT22;46577;49.004;12.120;2022-08-07T05:07:57;18.20;73.20
60727;DHT22;46577;49.004;12.120;2022-08-07T05:10:29;18.60;71.00
60727;DHT22;46577;49.004;12.120;2022-08-07T05:12:59;19.00;69.20
60727;DHT22;46577;49.004;12.120;2022-08-07T05:15:38;19.40;67.50
60727;DHT22;46577;49.004;12.120;2022-08-07T05:18:30;20.00;65.40
60727;DHT22;46577;49.004;12.120;2022-08-07T05:20:59;20.50;62.90
60727;DHT22;46577;49.004;12.120;2022-08-07T05:23:50;21.00;60.00
60727;DHT22;46577;49.004;12.120;2022-08-07T05:26:19;21.60;58.80
60727;DHT22;46577;49.004;12.120;2022-08-07T05:28:50;22.20;57.00
60727;DHT22;46577;49.004;12.120;2022-08-07T05:31:18;22.80;54.20
60727;DHT22;46577;49.004;12.120;2022-08-07T05:33:45;23.30;52.20
60727;DHT22;46577;49.004;12.120;2022-08-07T05:36:12;23.70;50.90
60727;DHT22;46577;49.004;12.120;2022-08-07T05:38:39;24.20;49.10
60727;DHT22;46577;49.004;12.120;2022-08-07T05:41:06;24.60;47.90
60727;DHT22;46577;49.004;12.120;2022-08-07T05:43:33;25.00;46.80
60727;DHT22;46577;49.004;12.120;2022-08-07T05:45:59;25.40;44.90
60727;DHT22;46577;49.004;12.120;2022-08-07T05:48:28;25.80;44.50
60727;DHT22;46577;49.004;12.120;2022-08-07T05:50:58;26.00;43.20
60727;DHT22;46577;49.004;12.120;2022-08-07T05:53:26;26.30;43.00
60727;DHT22;46577;49.004;12.120;2022-08-07T05:55:53;26.70;42.00
60727;DHT22;46577;49.004;12.120;2022-08-07T05:58:21;26.80;41.60
60727;DHT22;46577;49.004;12.120;2022-08-07T06:00:49;27.30;41.20
60727;DHT22;46577;49.004;12.120;2022-08-07T06:03:18;27.50;39.70
60727;DHT22;46577;49.004;12.120;2022-08-07T06:05:46;27.70;40.60
60727;DHT22;46577;49.004;12.120;2022-08-07T06:08:12;28.00;39.60
60727;DHT22;46577;49.004;12.120;2022-08-07T06:10:38;28.10;38.50
60727;DHT22;46577;49.004;12.120;2022-08-07T06:13:04;28.20;38.00
60727;DHT22;46577;49.004;12.120;2022-08-07T06:15:34;28.00;38.60
60727;DHT22;46577;49.004;12.120;2022-08-07T06:18:01;28.20;37.90
60727;DHT22;46577;49.004;12.120;2022-08-07T06:20:29;28.40;37.60
60727;DHT22;46577;49.004;12.120;2022-08-07T06:22:55;28.80;36.70
60727;DHT22;46577;49.004;12.120;2022-08-07T06:25:21;29.10;36.70
60727;DHT22;46577;49.004;12.120;2022-08-07T06:27:47;29.60;35.50
60727;DHT22;46577;49.004;12.120;2022-08-07T06:30:13;30.10;34.80
60727;DHT22;46577;49.004;12.120;2022-08-07T06:32:38;30.90;33.90
60727;DHT22;46577;49.004;12.120;2022-08-07T06:35:04;31.60;32.50
60727;DHT22;46577;49.004;12.120;2022-08-07T06:37:30;32.40;31.10
60727;DHT22;46577;49.004;12.120;2022-08-07T06:39:56;33.30;30.50
60727;DHT22;46577;49.004;12.120;2022-08-07T06:42:32;34.20;29.40
60727;DHT22;46577;49.004;12.120;2022-08-07T06:45:03;35.10;28.10
60727;DHT22;46577;49.004;12.120;2022-08-07T06:47:30;35.70;27.30
60727;DHT22;46577;49.004;12.120;2022-08-07T06:49:57;36.30;26.30
60727;DHT22;46577;49.004;12.120;2022-08-07T06:52:24;36.90;25.90
60727;DHT22;46577;49.004;12.120;2022-08-07T06:54:52;37.40;25.70
60727;DHT22;46577;49.004;12.120;2022-08-07T06:57:19;37.90;25.00
60727;DHT22;46577;49.004;12.120;2022-08-07T06:59:46;38.50;25.00
60727;DHT22;46577;49.004;12.120;2022-08-07T07:02:21;39.20;23.70
60727;DHT22;46577;49.004;12.120;2022-08-07T07:04:48;39.60;23.10
60727;DHT22;46577;49.004;12.120;2022-08-07T07:07:14;40.40;22.70
60727;DHT22;46577;49.004;12.120;2022-08-07T07:09:47;40.90;22.20
60727;DHT22;46577;49.004;12.120;2022-08-07T07:14:57;41.90;21.50
60727;DHT22;46577;49.004;12.120;2022-08-07T07:17:38;42.40;20.60
60727;DHT22;46577;49.004;12.120;2022-08-07T07:20:10;42.40;20.20
60727;DHT22;46577;49.004;12.120;2022-08-07T07:22:37;42.60;20.40
60727;DHT22;46577;49.004;12.120;2022-08-07T07:25:04;43.40;19.30
60727;DHT22;46577;49.004;12.120;2022-08-07T07:27:34;43.50;19.30
60727;DHT22;46577;49.004;12.120;2022-08-07T07:30:03;43.50;19.50
60727;DHT22;46577;49.004;12.120;2022-08-07T07:32:30;43.50;18.80
60727;DHT22;46577;49.004;12.120;2022-08-07T07:34:59;43.10;18.50
60727;DHT22;46577;49.004;12.120;2022-08-07T07:37:27;43.10;18.90
60727;DHT22;46577;49.004;12.120;2022-08-07T07:39:57;43.30;18.70
60727;DHT22;46577;49.004;12.120;2022-08-07T07:42:25;43.60;18.50
60727;DHT22;46577;49.004;12.120;2022-08-07T07:44:52;42.20;19.20
60727;DHT22;46577;49.004;12.120;2022-08-07T07:47:18;41.00;18.80
60727;DHT22;46577;49.004;12.120;2022-08-07T07:49:46;39.20;20.40
60727;DHT22;46577;49.004;12.120;2022-08-07T07:52:13;38.90;20.80
60727;DHT22;46577;49.004;12.120;2022-08-07T07:54:41;39.70;20.20
60727;DHT22;46577;49.004;12.120;2022-08-07T07:57:08;40.90;19.80
60727;DHT22;46577;49.004;12.120;2022-08-07T07:59:37;42.50;19.10
60727;DHT22;46577;49.004;12.120;2022-08-07T08:02:04;42.90;18.10
60727;DHT22;46577;49.004;12.120;2022-08-07T08:04:32;42.70;18.90
60727;DHT22;46577;49.004;12.120;2022-08-07T08:06:59;44.10;18.30
60727;DHT22;46577;49.004;12.120;2022-08-07T08:09:27;44.30;17.20
60727;DHT22;46577;49.004;12.120;2022-08-07T08:11:53;44.60;18.00
60727;DHT22;46577;49.004;12.120;2022-08-07T08:14:19;45.20;17.30
60727;DHT22;46577;49.004;12.120;2022-08-07T08:16:46;46.10;16.60
60727;DHT22;46577;49.004;12.120;2022-08-07T08:19:16;46.40;16.60
60727;DHT22;46577;49.004;12.120;2022-08-07T08:21:46;43.90;17.00
60727;DHT22;46577;49.004;12.120;2022-08-07T08:24:38;41.20;18.80
60727;DHT22;46577;49.004;12.120;2022-08-07T08:27:27;41.90;18.40
60727;DHT22;46577;49.004;12.120;2022-08-07T08:30:00;43.80;17.20
60727;DHT22;46577;49.004;12.120;2022-08-07T08:32:28;45.00;16.60
60727;DHT22;46577;49.004;12.120;2022-08-07T08:34:56;46.10;15.90
60727;DHT22;46577;49.004;12.120;2022-08-07T08:37:25;43.60;16.80
60727;DHT22;46577;49.004;12.120;2022-08-07T08:39:53;41.50;18.00
60727;DHT22;46577;49.004;12.120;2022-08-07T08:42:39;41.60;18.40
60727;DHT22;46577;49.004;12.120;2022-08-07T08:50:55;42.60;18.20
60727;DHT22;46577;49.004;12.120;2022-08-07T08:53:36;43.40;17.10
60727;DHT22;46577;49.004;12.120;2022-08-07T08:56:23;42.00;18.10
60727;DHT22;46577;49.004;12.120;2022-08-07T09:01:42;44.60;16.10
60727;DHT22;46577;49.004;12.120;2022-08-07T09:07:07;45.20;16.20
60727;DHT22;46577;49.004;12.120;2022-08-07T09:12:48;42.10;16.70
60727;DHT22;46577;49.004;12.120;2022-08-07T09:15:37;40.50;18.60
60727;DHT22;46577;49.004;12.120;2022-08-07T09:21:28;42.20;17.30
60727;DHT22;46577;49.004;12.120;2022-08-07T09:24:02;39.90;18.60
60727;DHT22;46577;49.004;12.120;2022-08-07T09:26:45;41.20;17.60
60727;DHT22;46577;49.004;12.120;2022-08-07T09:35:34;43.20;16.40
60727;DHT22;46577;49.004;12.120;2022-08-07T09:38:21;41.90;17.50
60727;DHT22;46577;49.004;12.120;2022-08-07T09:49:41;45.80;15.00
60727;DHT22;46577;49.004;12.120;2022-08-07T09:55:17;44.30;16.60
60727;DHT22;46577;49.004;12.120;2022-08-07T10:00:27;44.90;15.40
60727;DHT22;46577;49.004;12.120;2022-08-07T10:08:26;44.30;16.30
60727;DHT22;46577;49.004;12.120;2022-08-07T10:11:11;43.40;16.10
60727;DHT22;46577;49.004;12.120;2022-08-07T10:19:21;38.50;19.20
60727;DHT22;46577;49.004;12.120;2022-08-07T10:24:39;39.50;18.70
60727;DHT22;46577;49.004;12.120;2022-08-07T10:27:19;40.70;17.40
60727;DHT22;46577;49.004;12.120;2022-08-07T10:40:24;38.30;19.20
60727;DHT22;46577;49.004;12.120;2022-08-07T10:45:25;42.40;17.60
60727;DHT22;46577;49.004;12.120;2022-08-07T10:50:38;44.30;15.40
60727;DHT22;46577;49.004;12.120;2022-08-07T10:55:59;43.00;15.60
60727;DHT22;46577;49.004;12.120;2022-08-07T11:01:13;39.70;17.40
60727;DHT22;46577;49.004;12.120;2022-08-07T11:03:48;38.70;18.60
60727;DHT22;46577;49.004;12.120;2022-08-07T11:06:26;37.30;19.40
60727;DHT22;46577;49.004;12.120;2022-08-07T11:09:06;38.60;19.10
60727;DHT22;46577;49.004;12.120;2022-08-07T11:11:42;37.80;19.10
60727;DHT22;46577;49.004;12.120;2022-08-07T11:14:32;39.50;18.70
60727;DHT22;46577;49.004;12.120;2022-08-07T11:17:23;41.20;17.40
60727;DHT22;46577;49.004;12.120;2022-08-07T11:20:06;41.00;17.40
60727;DHT22;46577;49.004;12.120;2022-08-07T11:23:17;40.80;17.60
60727;DHT22;46577;49.004;12.120;2022-08-07T11:26:00;41.30;17.50
60727;DHT22;46577;49.004;12.120;2022-08-07T11:28:38;40.30;17.70
60727;DHT22;46577;49.004;12.120;2022-08-07T11:31:12;39.50;18.30
60727;DHT22;46577;49.004;12.120;2022-08-07T11:33:53;39.20;18.80
60727;DHT22;46577;49.004;12.120;2022-08-07T11:39:22;40.20;18.10
60727;DHT22;46577;49.004;12.120;2022-08-07T11:42:03;39.50;18.70
60727;DHT22;46577;49.004;12.120;2022-08-07T12:01:49;33.60;22.80
60727;DHT22;46577;49.004;12.120;2022-08-07T12:07:28;30.80;25.00
60727;DHT22;46577;49.004;12.120;2022-08-07T12:10:03;30.80;26.10
60727;DHT22;46577;49.004;12.120;2022-08-07T12:15:22;30.20;26.00
60727;DHT22;46577;49.004;12.120;2022-08-07T12:17:52;28.80;28.00
60727;DHT22;46577;49.004;12.120;2022-08-07T12:20:29;28.70;28.30
60727;DHT22;46577;49.004;12.120;2022-08-07T12:23:27;28.70;28.00
60727;DHT22;46577;49.004;12.120;2022-08-07T12:26:13;28.70;28.30
60727;DHT22;46577;49.004;12.120;2022-08-07T12:31:50;28.90;27.90
60727;DHT22;46577;49.004;12.120;2022-08-07T12:34:07;29.00;28.70
60727;DHT22;46577;49.004;12.120;2022-08-07T12:36:35;28.90;28.40
60727;DHT22;46577;49.004;12.120;2022-08-07T12:39:04;28.70;28.70
60727;DHT22;46577;49.004;12.120;2022-08-07T12:41:33;28.80;29.50
60727;DHT22;46577;49.004;12.120;2022-08-07T12:44:03;29.00;28.50
60727;DHT22;46577;49.004;12.120;2022-08-07T12:52:14;28.90;28.60
60727;DHT22;46577;49.004;12.120;2022-08-07T12:54:54;29.00;28.70
60727;DHT22;46577;49.004;12.120;2022-08-07T12:57:26;29.20;29.00
60727;DHT22;46577;49.004;12.120;2022-08-07T12:59:56;29.30;29.00
60727;DHT22;46577;49.004;12.120;2022-08-07T13:05:37;28.70;28.50
60727;DHT22;46577;49.004;12.120;2022-08-07T13:08:39;28.60;29.10
60727;DHT22;46577;49.004;12.120;2022-08-07T13:14:06;28.90;29.70
60727;DHT22;46577;49.004;12.120;2022-08-07T13:19:33;29.10;29.10
60727;DHT22;46577;49.004;12.120;2022-08-07T13:22:11;29.00;28.30
60727;DHT22;46577;49.004;12.120;2022-08-07T13:24:47;29.00;28.60
60727;DHT22;46577;49.004;12.120;2022-08-07T13:27:29;29.00;28.00
60727;DHT22;46577;49.004;12.120;2022-08-07T13:30:08;29.00;29.10
60727;DHT22;46577;49.004;12.120;2022-08-07T13:32:43;28.90;28.80
60727;DHT22;46577;49.004;12.120;2022-08-07T13:37:58;28.10;28.40
60727;DHT22;46577;49.004;12.120;2022-08-07T13:40:40;27.80;28.90
60727;DHT22;46577;49.004;12.120;2022-08-07T13:43:11;27.80;28.80
60727;DHT22;46577;49.004;12.120;2022-08-07T13:45:40;27.90;29.40
60727;DHT22;46577;49.004;12.120;2022-08-07T13:48:10;28.00;28.70
60727;DHT22;46577;49.004;12.120;2022-08-07T13:50:40;28.20;28.70
60727;DHT22;46577;49.004;12.120;2022-08-07T13:53:07;28.30;28.60
60727;DHT22;46577;49.004;12.120;2022-08-07T13:55:34;28.30;28.50
60727;DHT22;46577;49.004;12.120;2022-08-07T13:58:08;28.00;29.30
60727;DHT22;46577;49.004;12.120;2022-08-07T14:00:53;27.90;29.10
60727;DHT22;46577;49.004;12.120;2022-08-07T14:03:21;27.40;29.10
60727;DHT22;46577;49.004;12.120;2022-08-07T14:05:51;27.20;29.60
60727;DHT22;46577;49.004;12.120;2022-08-07T14:08:19;27.10;29.50
60727;DHT22;46577;49.004;12.120;2022-08-07T14:10:47;27.10;29.50
60727;DHT22;46577;49.004;12.120;2022-08-07T14:13:17;27.30;29.80
60727;DHT22;46577;49.004;12.120;2022-08-07T14:15:57;27.70;29.40
60727;DHT22;46577;49.004;12.120;2022-08-07T14:18:46;28.00;28.90
60727;DHT22;46577;49.004;12.120;2022-08-07T14:23:47;28.00;29.10
60727;DHT22;46577;49.004;12.120;2022-08-07T14:26:19;28.00;29.40
60727;DHT22;46577;49.004;12.120;2022-08-07T14:28:47;28.00;29.10
60727;DHT22;46577;49.004;12.120;2022-08-07T14:31:14;28.10;28.80
60727;DHT22;46577;49.004;12.120;2022-08-07T14:33:41;28.10;28.70
60727;DHT22;46577;49.004;12.120;2022-08-07T14:36:07;28.20;30.20
60727;DHT22;46577;49.004;12.120;2022-08-07T14:38:34;28.50;30.00
60727;DHT22;46577;49.004;12.120;2022-08-07T14:41:04;28.70;29.60
60727;DHT22;46577;49.004;12.120;2022-08-07T14:43:32;28.90;28.90
60727;DHT22;46577;49.004;12.120;2022-08-07T14:45:59;29.00;28.40
60727;DHT22;46577;49.004;12.120;2022-08-07T14:48:28;29.10;29.20
60727;DHT22;46577;49.004;12.120;2022-08-07T14:50:58;29.20;28.90
60727;DHT22;46577;49.004;12.120;2022-08-07T14:53:29;29.30;28.60
60727;DHT22;46577;49.004;12.120;2022-08-07T14:55:56;29.30;28.40
60727;DHT22;46577;49.004;12.120;2022-08-07T14:58:26;29.30;27.60
60727;DHT22;46577;49.004;12.120;2022-08-07T15:00:56;29.10;27.80
60727;DHT22;46577;49.004;12.120;2022-08-07T15:03:25;29.10;28.90
60727;DHT22;46577;49.004;12.120;2022-08-07T15:05:51;29.30;28.70
60727;DHT22;46577;49.004;12.120;2022-08-07T15:08:28;29.40;27.80
60727;DHT22;46577;49.004;12.120;2022-08-07T15:11:00;29.40;28.00
60727;DHT22;46577;49.004;12.120;2022-08-07T15:13:27;29.30;27.50
60727;DHT22;46577;49.004;12.120;2022-08-07T15:16:02;29.00;27.90
60727;DHT22;46577;49.004;12.120;2022-08-07T15:18:44;28.60;28.30
60727;DHT22;46577;49.004;12.120;2022-08-07T15:21:32;28.40;28.70
60727;DHT22;46577;49.004;12.120;2022-08-07T15:24:00;27.90;29.20
60727;DHT22;46577;49.004;12.120;2022-08-07T15:29:39;27.60;29.80
60727;DHT22;46577;49.004;12.120;2022-08-07T15:32:05;27.90;29.50
60727;DHT22;46577;49.004;12.120;2022-08-07T15:34:43;28.30;29.40
60727;DHT22;46577;49.004;12.120;2022-08-07T15:37:10;28.30;28.90
60727;DHT22;46577;49.004;12.120;2022-08-07T15:39:41;28.60;29.10
60727;DHT22;46577;49.004;12.120;2022-08-07T15:44:59;28.70;29.10
60727;DHT22;46577;49.004;12.120;2022-08-07T15:47:27;28.70;29.20
60727;DHT22;46577;49.004;12.120;2022-08-07T15:49:58;28.70;28.70
60727;DHT22;46577;49.004;12.120;2022-08-07T15:52:24;28.40;28.70
60727;DHT22;46577;49.004;12.120;2022-08-07T15:54:51;28.10;29.10
60727;DHT22;46577;49.004;12.120;2022-08-07T15:57:26;27.80;29.70
60727;DHT22;46577;49.004;12.120;2022-08-07T15:59:55;27.60;30.20
60727;DHT22;46577;49.004;12.120;2022-08-07T16:02:26;27.90;30.30
60727;DHT22;46577;49.004;12.120;2022-08-07T16:05:07;28.20;30.00
60727;DHT22;46577;49.004;12.120;2022-08-07T16:07:47;28.20;30.00
60727;DHT22;46577;49.004;12.120;2022-08-07T16:10:19;28.40;29.70
60727;DHT22;46577;49.004;12.120;2022-08-07T16:16:02;28.50;30.00
60727;DHT22;46577;49.004;12.120;2022-08-07T16:21:05;28.40;29.60
60727;DHT22;46577;49.004;12.120;2022-08-07T16:23:56;28.00;30.00
60727;DHT22;46577;49.004;12.120;2022-08-07T16:47:25;26.90;31.70
60727;DHT22;46577;49.004;12.120;2022-08-07T16:56:02;26.90;32.20
60727;DHT22;46577;49.004;12.120;2022-08-07T16:59:12;26.90;32.40
60727;DHT22;46577;49.004;12.120;2022-08-07T17:04:36;26.70;32.80
60727;DHT22;46577;49.004;12.120;2022-08-07T17:07:20;26.60;33.90
60727;DHT22;46577;49.004;12.120;2022-08-07T17:23:09;25.70;34.60
60727;DHT22;46577;49.004;12.120;2022-08-07T17:36:50;25.60;35.20
60727;DHT22;46577;49.004;12.120;2022-08-07T17:42:06;25.50;35.20
60727;DHT22;46577;49.004;12.120;2022-08-07T17:49:58;25.30;35.50
60727;DHT22;46577;49.004;12.120;2022-08-07T17:55:21;25.20;35.50
60727;DHT22;46577;49.004;12.120;2022-08-07T17:57:59;25.20;35.70
60727;DHT22;46577;49.004;12.120;2022-08-07T18:00:28;25.10;35.80
60727;DHT22;46577;49.004;12.120;2022-08-07T18:02:59;25.10;36.10
60727;DHT22;46577;49.004;12.120;2022-08-07T18:13:19;24.80;36.40
60727;DHT22;46577;49.004;12.120;2022-08-07T18:16:18;24.80;36.70
60727;DHT22;46577;49.004;12.120;2022-08-07T18:18:51;24.60;36.90
60727;DHT22;46577;49.004;12.120;2022-08-07T18:26:37;24.30;37.20
60727;DHT22;46577;49.004;12.120;2022-08-07T18:43:24;23.90;39.10
60727;DHT22;46577;49.004;12.120;2022-08-07T18:46:01;23.90;39.30
60727;DHT22;46577;49.004;12.120;2022-08-07T18:48:51;23.70;39.40
60727;DHT22;46577;49.004;12.120;2022-08-07T18:51:30;23.70;39.80
60727;DHT22;46577;49.004;12.120;2022-08-07T19:05:01;23.30;40.50
60727;DHT22;46577;49.004;12.120;2022-08-07T19:10:20;23.20;41.30
60727;DHT22;46577;49.004;12.120;2022-08-07T19:13:06;23.20;40.80
60727;DHT22;46577;49.004;12.120;2022-08-07T19:16:07;23.10;41.00
60727;DHT22;46577;49.004;12.120;2022-08-07T19:24:12;23.10;41.20
60727;DHT22;46577;49.004;12.120;2022-08-07T19:26:47;23.00;42.30
60727;DHT22;46577;49.004;12.120;2022-08-07T19:29:14;22.90;42.00
60727;DHT22;46577;49.004;12.120;2022-08-07T19:31:46;22.90;41.20
60727;DHT22;46577;49.004;12.120;2022-08-07T19:34:16;22.90;41.20
60727;DHT22;46577;49.004;12.120;2022-08-07T19:36:47;22.90;41.40
60727;DHT22;46577;49.004;12.120;2022-08-07T19:39:15;22.80;41.30
60727;DHT22;46577;49.004;12.120;2022-08-07T19:41:45;22.80;41.60
60727;DHT22;46577;49.004;12.120;2022-08-07T19:44:12;22.70;41.50
60727;DHT22;46577;49.004;12.120;2022-08-07T19:46:43;22.70;41.50
60727;DHT22;46577;49.004;12.120;2022-08-07T19:49:21;22.50;41.10
60727;DHT22;46577;49.004;12.120;2022-08-07T19:51:49;22.50;41.70
60727;DHT22;46577;49.004;12.120;2022-08-07T19:54:17;22.40;41.90
60727;DHT22;46577;49.004;12.120;2022-08-07T19:56:46;22.40;41.70
60727;DHT22;46577;49.004;12.120;2022-08-07T19:59:25;22.30;42.10
60727;DHT22;46577;49.004;12.120;2022-08-07T20:01:53;22.30;42.10